Federal, Argentina
Current Conditions -  °F | °C
As of 4:00 PM on Friday 31 Oct 2014 (Local Time) from SARL Reporting Station
Thunderstorm Thunderstorm  
Wind Chill: 72°   Ceiling: 4500
Heat Index: 72°   Visibility: 5mi
Dew Point: 70°   Wind: 5mph
Humidity: 94%   Direction: 160°SSE
Pressure: 29.85"   Gusts: NA
Location:  30.95°S, 58.8°W
Report Text: SARL 311900Z 16004KT 8000 TSRA SCT018OVC045 OVC050CB 22/21 Q1011
Loading
Personal Weather Stations






























Interactive Weather Map
Tropical Storm Tracking
New forecast layout! Learn more

10-Day Weather Forecast

Advertisements
Track Severe Weather on mobile